Time;durP1;ratioP1;P1;durP2;ratioP2;P2;SDS_P1;SDS_P2;PMS_P1;PMS_P2;Temp;Humidity;BMP_temperature;BMP_pressure;BME280_temperature;BME280_humidity;BME280_pressure;Samples;Min_cycle;Max_cycle;Signal;HPM_P1;HPM_P2
2021/10/23 00:00:59;;;;;;;13.18;1.45;;;;;;;10.29;61.49;102401.19;5052301;28;20025;-45
2021/10/23 00:03:24;;;;;;;10.32;1.48;;;;;;;10.30;62.08;102400.19;5052325;28;20021;-45
2021/10/23 00:05:49;;;;;;;14.52;1.65;;;;;;;10.34;61.75;102398.06;5034315;28;20335;-45
2021/10/23 00:08:15;;;;;;;9.75;1.50;;;;;;;10.36;62.19;102401.47;5032473;28;20384;-46
2021/10/23 00:10:40;;;;;;;8.55;1.23;;;;;;;10.35;62.68;102402.47;5032251;28;20120;-45
2021/10/23 00:13:05;;;;;;;12.82;1.13;;;;;;;10.37;62.21;102402.28;5032261;28;20025;-46
2021/10/23 00:15:32;;;;;;;8.18;1.23;;;;;;;10.42;62.42;102397.34;5032125;28;20041;-45
2021/10/23 00:17:57;;;;;;;13.27;1.40;;;;;;;10.44;62.03;102414.19;5041023;28;20045;-45
2021/10/23 00:20:23;;;;;;;18.40;1.55;;;;;;;10.39;62.87;102408.41;5051983;28;20486;-46
2021/10/23 00:22:49;;;;;;;6.85;1.15;;;;;;;10.36;63.57;102406.84;5052258;28;20029;-48
2021/10/23 00:25:14;;;;;;;12.90;2.10;;;;;;;10.32;63.29;102400.91;5052317;28;20023;-46
2021/10/23 00:27:39;;;;;;;14.40;1.60;;;;;;;10.28;63.81;102404.84;5051774;28;20472;-45
2021/10/23 00:30:06;;;;;;;11.60;1.38;;;;;;;10.26;64.66;102400.56;5051959;28;20545;-44
2021/10/23 00:32:31;;;;;;;20.80;1.80;;;;;;;10.20;65.23;102402.00;5051993;28;20025;-45
2021/10/23 00:34:57;;;;;;;13.85;2.45;;;;;;;10.17;64.77;102404.13;5051743;28;20108;-43
2021/10/23 00:37:22;;;;;;;11.25;1.35;;;;;;;10.15;64.87;102401.56;5051977;28;20068;-44
2021/10/23 00:39:48;;;;;;;15.10;1.52;;;;;;;10.11;65.83;102401.00;5051949;28;20025;-45
2021/10/23 00:42:13;;;;;;;8.07;1.27;;;;;;;10.17;64.35;102394.22;5050597;28;20021;-46
2021/10/23 00:44:41;;;;;;;15.82;2.13;;;;;;;10.19;63.95;102403.00;5051933;28;20131;-47
2021/10/23 00:47:18;;;;;;;10.27;1.83;;;;;;;10.18;64.99;102395.06;5051847;28;20420;-46
2021/10/23 00:49:44;;;;;;;8.07;0.90;;;;;;;10.21;63.98;102386.69;5052038;28;20025;-47
2021/10/23 00:52:10;;;;;;;10.32;1.33;;;;;;;10.18;64.19;102393.19;5051649;28;20033;-47
2021/10/23 00:54:36;;;;;;;12.23;1.58;;;;;;;10.13;65.35;102397.31;5051775;28;20029;-46
2021/10/23 00:57:03;;;;;;;14.45;1.77;;;;;;;10.05;65.21;102411.47;5050412;28;20029;-45
2021/10/23 00:59:29;;;;;;;10.43;1.30;;;;;;;10.08;65.45;102400.41;5051712;28;20091;-46
2021/10/23 01:01:55;;;;;;;10.85;1.52;;;;;;;10.13;63.00;102402.69;5051927;28;20383;-47
2021/10/23 01:04:21;;;;;;;8.63;1.42;;;;;;;10.07;63.62;102398.72;5051496;28;20108;-46
2021/10/23 01:06:47;;;;;;;10.23;1.08;;;;;;;10.05;62.35;102401.53;5051786;28;20124;-45
2021/10/23 01:09:13;;;;;;;8.90;1.60;;;;;;;9.99;63.81;102410.19;5051842;28;20391;-44
2021/10/23 01:11:39;;;;;;;9.30;1.00;;;;;;;9.88;63.76;102416.53;5055439;28;20079;-44
2021/10/23 01:14:04;;;;;;;9.13;1.55;;;;;;;9.78;64.36;102410.28;5059965;28;20480;-47
2021/10/23 01:16:30;;;;;;;6.18;1.05;;;;;;;9.76;63.01;102409.56;5051357;28;20131;-48
2021/10/23 01:18:55;;;;;;;8.52;1.25;;;;;;;9.69;63.91;102408.44;5051584;28;20025;-44
2021/10/23 01:21:21;;;;;;;7.18;1.13;;;;;;;9.62;64.78;102408.13;5051603;28;20033;-46
2021/10/23 01:23:47;;;;;;;7.40;1.10;;;;;;;9.53;64.27;102395.53;5051427;28;20055;-45
2021/10/23 01:26:12;;;;;;;5.65;1.75;;;;;;;9.45;64.78;102404.28;5051518;28;20026;-45
2021/10/23 01:28:38;;;;;;;7.30;1.40;;;;;;;9.44;64.38;102409.78;5051335;28;20083;-46
2021/10/23 01:31:03;;;;;;;21.67;1.48;;;;;;;9.37;66.15;102404.09;5051332;28;20033;-44
2021/10/23 01:33:28;;;;;;;10.85;1.10;;;;;;;9.33;66.44;102405.34;5051499;28;20025;-47
2021/10/23 01:36:10;;;;;;;10.73;1.30;;;;;;;9.35;66.46;102399.84;5051592;28;20094;-45
2021/10/23 01:38:36;;;;;;;9.38;1.48;;;;;;;9.38;67.46;102396.88;5050107;28;20479;-47
2021/10/23 01:41:01;;;;;;;14.95;1.92;;;;;;;9.34;67.17;102398.97;5053664;28;20036;-45
2021/10/23 01:43:26;;;;;;;8.48;1.42;;;;;;;9.36;66.88;102394.31;5054815;28;20476;-45
2021/10/23 01:45:52;;;;;;;14.77;1.60;;;;;;;9.34;67.18;102396.28;5055083;28;20048;-45
2021/10/23 01:48:17;;;;;;;14.25;1.52;;;;;;;9.27;67.78;102397.84;5055004;28;20533;-45
2021/10/23 01:50:42;;;;;;;12.02;1.67;;;;;;;9.19;68.09;102386.91;5054649;28;20025;-45
2021/10/23 01:53:08;;;;;;;6.22;1.20;;;;;;;9.12;68.45;102391.13;5054587;28;20032;-45
2021/10/23 01:55:33;;;;;;;13.50;1.83;;;;;;;9.01;69.34;102384.00;5053419;28;20110;-45
2021/10/23 01:57:59;;;;;;;11.48;1.67;;;;;;;8.92;69.85;102395.53;5054552;28;20395;-45
2021/10/23 02:00:24;;;;;;;10.02;1.38;;;;;;;8.81;70.35;102396.47;5054757;28;20036;-45
2021/10/23 02:02:49;;;;;;;10.73;1.30;;;;;;;8.72;71.49;102394.59;5054707;28;20017;-48
2021/10/23 02:05:15;;;;;;;9.23;1.02;;;;;;;8.60;72.67;102396.47;5041645;28;20061;-46
2021/10/23 02:07:40;;;;;;;12.90;1.67;;;;;;;8.48;73.57;102401.06;5059571;28;20039;-45
2021/10/23 02:10:06;;;;;;;11.35;1.38;;;;;;;8.35;74.74;102397.69;5074634;28;20043;-46
2021/10/23 02:12:32;;;;;;;10.98;1.20;;;;;;;8.23;75.45;102393.34;5074759;28;20029;-47
2021/10/23 02:14:57;;;;;;;11.15;1.55;;;;;;;8.12;75.68;102397.75;5074527;28;20024;-45
2021/10/23 02:17:23;;;;;;;9.73;1.08;;;;;;;8.05;75.29;102391.19;5074376;28;20059;-45
2021/10/23 02:19:48;;;;;;;12.23;1.92;;;;;;;7.99;76.09;102402.44;5074441;28;20024;-45
2021/10/23 02:22:14;;;;;;;16.98;1.40;;;;;;;7.93;76.75;102408.31;5074351;28;20099;-45
2021/10/23 02:24:39;;;;;;;10.10;1.60;;;;;;;7.88;77.76;102405.16;5074282;28;20048;-45
2021/10/23 02:27:04;;;;;;;11.25;1.48;;;;;;;7.81;78.32;102410.16;5074091;28;20100;-45
2021/10/23 02:29:30;;;;;;;11.18;1.35;;;;;;;7.76;78.64;102403.47;5074256;28;20032;-45
2021/10/23 02:31:55;;;;;;;12.23;1.73;;;;;;;7.69;79.10;102404.00;5072923;28;20039;-45
2021/10/23 02:34:20;;;;;;;9.05;1.35;;;;;;;7.61;78.18;102403.75;5074198;28;20028;-46
2021/10/23 02:36:46;;;;;;;8.07;1.50;;;;;;;7.54;78.33;102394.50;5073927;28;20489;-44
2021/10/23 02:39:11;;;;;;;10.85;1.50;;;;;;;7.50;80.08;102401.06;5074147;28;20467;-45
2021/10/23 02:41:36;;;;;;;7.47;1.05;;;;;;;7.44;80.04;102398.91;5073686;28;20463;-44
2021/10/23 02:44:02;;;;;;;7.22;1.40;;;;;;;7.37;79.82;102395.00;5073952;28;20056;-47
2021/10/23 02:46:28;;;;;;;10.25;1.35;;;;;;;7.32;80.77;102394.53;5073997;28;20028;-44
2021/10/23 02:48:53;;;;;;;9.80;1.20;;;;;;;7.28;81.23;102401.09;5073832;28;20021;-44
2021/10/23 02:51:18;;;;;;;10.55;1.45;;;;;;;7.22;81.05;102399.78;5072352;28;20399;-45
2021/10/23 02:53:44;;;;;;;16.23;2.33;;;;;;;7.15;81.41;102398.56;5072445;28;20043;-45
2021/10/23 02:56:09;;;;;;;8.23;1.50;;;;;;;7.09;82.27;102397.22;5073382;28;20021;-45
2021/10/23 02:58:35;;;;;;;10.55;1.50;;;;;;;7.01;81.26;102399.66;5072271;28;20103;-44
2021/10/23 03:01:00;;;;;;;10.10;1.92;;;;;;;6.94;81.41;102396.59;5065000;28;20037;-44
2021/10/23 03:03:26;;;;;;;9.90;1.38;;;;;;;6.90;81.51;102404.97;5053450;28;20029;-46
2021/10/23 03:05:51;;;;;;;15.68;1.40;;;;;;;6.82;82.10;102411.78;5053366;28;20037;-45
2021/10/23 03:08:16;;;;;;;8.13;1.70;;;;;;;6.77;82.50;102413.97;5053360;28;20120;-47
2021/10/23 03:10:42;;;;;;;10.07;1.20;;;;;;;6.73;83.13;102411.63;5053387;28;20036;-45
2021/10/23 03:13:08;;;;;;;7.53;1.08;;;;;;;6.68;82.66;102413.81;5053238;28;20029;-44
2021/10/23 03:15:33;;;;;;;15.50;2.78;;;;;;;6.62;83.34;102415.13;5053145;28;20494;-45
2021/10/23 03:17:58;;;;;;;8.88;1.40;;;;;;;6.60;83.23;102427.78;5052826;28;20551;-45
2021/10/23 03:20:24;;;;;;;11.18;1.92;;;;;;;6.57;83.51;102414.63;5053076;28;20383;-45
2021/10/23 03:22:49;;;;;;;12.05;1.98;;;;;;;6.53;84.07;102426.53;5053081;28;20035;-45
2021/10/23 03:25:15;;;;;;;9.07;1.50;;;;;;;6.49;84.41;102419.72;5052818;28;20060;-44
2021/10/23 03:27:40;;;;;;;7.22;1.75;;;;;;;6.46;84.72;102425.31;5052736;28;20064;-45
2021/10/23 03:30:07;;;;;;;10.18;2.00;;;;;;;6.45;84.33;102431.59;5052825;28;20055;-44
2021/10/23 03:32:32;;;;;;;8.55;1.65;;;;;;;6.37;83.92;102430.38;5052712;28;20032;-44
2021/10/23 03:35:00;;;;;;;7.28;1.40;;;;;;;6.33;84.27;102425.38;5052622;28;20360;-47
2021/10/23 03:37:33;;;;;;;12.85;2.45;;;;;;;6.32;84.97;102429.88;5052482;28;20365;-45
2021/10/23 03:39:59;;;;;;;16.33;1.63;;;;;;;6.32;85.28;102426.34;5052486;28;20386;-48
2021/10/23 03:42:25;;;;;;;9.20;1.98;;;;;;;6.32;85.40;102435.22;5052590;28;20100;-45
2021/10/23 03:44:51;;;;;;;7.75;1.77;;;;;;;6.32;85.08;102435.22;5052664;28;20102;-46
2021/10/23 03:47:16;;;;;;;10.23;1.80;;;;;;;6.31;85.27;102438.00;5052539;28;20036;-45
2021/10/23 03:49:43;;;;;;;13.07;2.15;;;;;;;6.28;84.92;102436.41;5052554;28;20024;-48
2021/10/23 03:52:08;;;;;;;4.72;1.40;;;;;;;6.24;84.98;102442.97;5051207;28;20032;-45
2021/10/23 03:54:34;;;;;;;12.57;2.10;;;;;;;6.21;85.36;102445.84;5050941;28;20021;-44
2021/10/23 03:56:59;;;;;;;8.27;1.45;;;;;;;6.20;85.40;102452.16;5052146;28;20375;-44
2021/10/23 03:59:25;;;;;;;10.38;1.77;;;;;;;6.16;85.22;102456.03;5051476;28;20051;-43
2021/10/23 04:01:50;;;;;;;8.27;1.38;;;;;;;6.17;86.08;102455.06;5052175;28;20056;-45
2021/10/23 04:04:15;;;;;;;14.93;1.73;;;;;;;6.17;85.85;102451.56;5046668;28;20021;-44
2021/10/23 04:06:41;;;;;;;8.93;1.60;;;;;;;6.18;85.75;102450.56;5032100;28;20041;-44
2021/10/23 04:09:06;;;;;;;5.18;1.90;;;;;;;6.17;86.13;102448.88;5032203;28;20032;-45
2021/10/23 04:11:31;;;;;;;9.55;1.83;;;;;;;6.17;86.07;102455.06;5032195;28;20571;-44
2021/10/23 04:13:57;;;;;;;16.15;1.75;;;;;;;6.19;86.45;102447.81;5048939;28;20425;-45
2021/10/23 04:16:22;;;;;;;17.80;1.52;;;;;;;6.16;85.87;102450.69;5069486;28;20475;-47
2021/10/23 04:18:47;;;;;;;12.50;1.88;;;;;;;6.16;86.05;102445.34;5055922;28;20067;-45
2021/10/23 04:21:15;;;;;;;11.75;1.77;;;;;;;6.12;86.24;102446.53;5051904;28;20032;-44
2021/10/23 04:23:40;;;;;;;7.47;1.50;;;;;;;6.11;86.31;102447.53;5051988;28;20472;-44
2021/10/23 04:26:05;;;;;;;9.65;1.45;;;;;;;6.18;86.36;102443.41;5051884;28;20105;-44
2021/10/23 04:28:31;;;;;;;10.98;1.80;;;;;;;6.21;85.90;102437.81;5051983;28;20384;-45
2021/10/23 04:30:56;;;;;;;13.02;2.08;;;;;;;6.22;85.97;102444.91;5052033;28;20503;-43
2021/10/23 04:33:21;;;;;;;10.75;2.00;;;;;;;6.24;86.35;102442.97;5051909;28;20036;-44
2021/10/23 04:35:46;;;;;;;9.20;1.35;;;;;;;6.26;86.61;102435.66;5051824;28;20044;-44
2021/10/23 04:38:12;;;;;;;13.30;1.73;;;;;;;6.26;86.26;102440.16;5050360;28;20025;-44
2021/10/23 04:40:38;;;;;;;10.10;1.40;;;;;;;6.28;86.81;102444.44;5051983;28;20379;-43
2021/10/23 04:43:04;;;;;;;8.32;1.35;;;;;;;6.31;86.62;102441.53;5049331;28;20484;-44
2021/10/23 04:45:29;;;;;;;10.43;2.22;;;;;;;6.37;86.23;102449.09;5048749;28;20176;-45
2021/10/23 04:47:54;;;;;;;9.98;1.75;;;;;;;6.40;86.51;102452.50;5048583;28;20492;-44
2021/10/23 04:50:20;;;;;;;12.15;1.95;;;;;;;6.38;86.68;102458.81;5048475;28;20045;-45
2021/10/23 04:52:45;;;;;;;11.18;2.35;;;;;;;6.37;86.45;102454.44;5049138;28;20384;-45
2021/10/23 04:55:10;;;;;;;8.95;1.83;;;;;;;6.34;86.14;102457.31;5048438;28;20043;-45
2021/10/23 04:57:36;;;;;;;11.75;2.28;;;;;;;6.32;86.13;102451.28;5048738;28;20115;-45
2021/10/23 05:00:01;;;;;;;14.60;2.72;;;;;;;6.34;86.52;102451.97;5048707;28;20144;-43
2021/10/23 05:02:26;;;;;;;11.27;1.90;;;;;;;6.37;86.68;102451.78;5048496;28;20111;-44
2021/10/23 05:04:52;;;;;;;10.38;2.25;;;;;;;6.42;86.89;102459.44;5038503;28;20379;-44
2021/10/23 05:07:17;;;;;;;16.27;2.30;;;;;;;6.51;87.04;102468.59;5054820;28;20067;-44
2021/10/23 05:09:42;;;;;;;14.82;1.70;;;;;;;6.56;86.73;102461.09;5044387;28;20112;-45
2021/10/23 05:12:08;;;;;;;16.45;1.98;;;;;;;6.62;86.76;102462.44;5036792;28;20053;-44
2021/10/23 05:14:33;;;;;;;12.80;2.20;;;;;;;6.63;86.47;102467.66;5028712;28;20050;-43
2021/10/23 05:16:58;;;;;;;9.27;1.50;;;;;;;6.64;86.34;102471.22;5050638;28;20467;-44
2021/10/23 05:19:24;;;;;;;6.60;1.65;;;;;;;6.65;86.45;102471.06;5052188;28;20112;-45
2021/10/23 05:21:49;;;;;;;9.00;2.28;;;;;;;6.66;86.68;102478.16;5052207;28;20431;-46
2021/10/23 05:24:14;;;;;;;6.18;1.77;;;;;;;6.66;86.15;102478.16;5052582;28;20083;-47
2021/10/23 05:26:39;;;;;;;14.05;1.98;;;;;;;6.63;86.47;102478.38;5050790;28;20025;-46
2021/10/23 05:29:05;;;;;;;13.93;2.08;;;;;;;6.63;86.62;102478.38;5034053;28;20029;-44
2021/10/23 05:31:30;;;;;;;13.68;2.65;;;;;;;6.62;86.50;102490.03;5032155;28;20114;-45
2021/10/23 05:33:55;;;;;;;15.60;1.73;;;;;;;6.63;86.96;102483.72;5032131;28;20021;-43
2021/10/23 05:36:21;;;;;;;8.95;1.90;;;;;;;6.62;86.49;102482.03;5032037;28;20439;-43
2021/10/23 05:38:46;;;;;;;10.43;2.10;;;;;;;6.60;86.54;102476.78;5031822;28;20164;-43
2021/10/23 05:41:11;;;;;;;13.73;2.25;;;;;;;6.63;86.47;102482.88;5042101;28;20223;-44
2021/10/23 05:43:37;;;;;;;13.93;2.50;;;;;;;6.61;86.40;102483.00;5033993;28;20436;-44
2021/10/23 05:46:02;;;;;;;13.55;1.98;;;;;;;6.60;87.03;102490.16;5035633;28;20028;-44
2021/10/23 05:48:28;;;;;;;14.88;2.35;;;;;;;6.62;87.35;102483.84;5052547;28;20351;-44
2021/10/23 05:50:53;;;;;;;16.42;2.63;;;;;;;6.63;87.69;102485.53;5046855;28;20070;-45
2021/10/23 05:53:18;;;;;;;14.98;2.80;;;;;;;6.64;87.49;102488.13;5051347;28;20048;-45
2021/10/23 05:55:43;;;;;;;15.73;2.92;;;;;;;6.67;87.30;102493.22;5069318;28;20411;-44
2021/10/23 05:58:09;;;;;;;13.13;2.63;;;;;;;6.71;87.30;102500.03;5051131;28;20111;-45
2021/10/23 06:00:35;;;;;;;13.38;2.53;;;;;;;6.80;87.62;102504.72;5051589;28;20116;-44
2021/10/23 06:03:01;;;;;;;12.75;2.25;;;;;;;6.84;87.14;102510.66;5051445;28;20033;-45
2021/10/23 06:05:27;;;;;;;17.15;2.15;;;;;;;6.88;87.24;102514.84;5058687;28;20032;-44
2021/10/23 06:07:53;;;;;;;15.65;2.65;;;;;;;6.97;87.29;102519.47;5069411;28;20032;-45
2021/10/23 06:10:19;;;;;;;14.27;2.58;;;;;;;7.06;86.99;102517.06;5051199;28;20034;-45
2021/10/23 06:12:45;;;;;;;20.13;2.63;;;;;;;7.12;86.78;102520.13;5033337;28;20110;-46
2021/10/23 06:15:10;;;;;;;10.90;2.53;;;;;;;7.19;87.20;102525.88;5050850;28;20100;-44
2021/10/23 06:17:36;;;;;;;27.10;3.15;;;;;;;7.30;87.09;102522.38;5050932;28;20040;-44
2021/10/23 06:20:03;;;;;;;20.42;2.80;;;;;;;7.38;87.28;102527.97;5051121;28;20047;-45
2021/10/23 06:22:28;;;;;;;10.68;2.20;;;;;;;7.41;86.61;102527.72;5047640;28;20021;-45
2021/10/23 06:24:53;;;;;;;13.55;3.15;;;;;;;7.50;87.22;102537.72;5029499;28;20607;-46
2021/10/23 06:27:19;;;;;;;20.45;3.45;;;;;;;7.57;86.88;102525.53;5030193;28;20041;-45
2021/10/23 06:29:45;;;;;;;13.25;2.85;;;;;;;7.64;86.41;102542.84;5030817;28;20095;-45
2021/10/23 06:32:10;;;;;;;11.07;3.42;;;;;;;7.67;86.70;102542.59;5030907;28;20083;-44
2021/10/23 06:34:39;;;;;;;14.73;2.80;;;;;;;7.73;87.09;102543.09;5030806;28;20051;-45
2021/10/23 06:37:04;;;;;;;15.15;2.97;;;;;;;7.78;87.50;102532.88;5030659;28;20080;-45
2021/10/23 06:39:29;;;;;;;16.13;2.97;;;;;;;7.85;87.24;102544.81;5030739;28;20060;-45
2021/10/23 06:41:55;;;;;;;16.98;3.53;;;;;;;7.92;87.58;102551.38;5037531;28;20056;-45
2021/10/23 06:44:20;;;;;;;11.18;2.63;;;;;;;8.00;87.47;102548.06;5050591;28;20024;-45
2021/10/23 06:46:45;;;;;;;18.80;4.22;;;;;;;8.07;87.47;102543.94;5050593;28;20060;-45
2021/10/23 06:49:10;;;;;;;20.13;3.42;;;;;;;8.11;87.26;102546.25;5050290;28;20045;-44
2021/10/23 06:51:37;;;;;;;17.02;3.67;;;;;;;8.18;87.59;102545.75;5050334;28;20032;-46
2021/10/23 06:54:03;;;;;;;15.13;2.90;;;;;;;8.25;87.33;102549.63;5049818;28;20480;-43
2021/10/23 06:56:29;;;;;;;10.02;3.35;;;;;;;8.30;87.88;102545.59;5050189;28;20420;-46
2021/10/23 06:58:54;;;;;;;30.60;5.72;;;;;;;8.34;87.70;102556.91;5050417;28;20075;-45
2021/10/23 07:01:20;;;;;;;21.60;3.60;;;;;;;8.40;87.98;102551.09;5049800;28;20392;-44
2021/10/23 07:03:46;;;;;;;15.38;3.00;;;;;;;8.47;87.49;102556.81;5049039;28;20387;-45
2021/10/23 07:06:11;;;;;;;19.58;3.97;;;;;;;8.55;87.69;102560.56;5041078;28;20104;-44
2021/10/23 07:08:36;;;;;;;15.13;3.20;;;;;;;8.64;87.53;102558.13;5036346;28;20053;-45
2021/10/23 07:11:02;;;;;;;10.38;3.22;;;;;;;8.71;87.24;102554.75;5033460;28;20029;-45
2021/10/23 07:13:27;;;;;;;16.67;3.50;;;;;;;8.79;86.80;102563.06;5048612;28;20025;-44
2021/10/23 07:15:53;;;;;;;20.02;4.30;;;;;;;8.83;86.67;102563.66;5051245;28;20032;-44
2021/10/23 07:18:18;;;;;;;10.77;3.13;;;;;;;8.85;86.64;102572.44;5060972;28;20393;-46
2021/10/23 07:20:44;;;;;;;12.30;3.47;;;;;;;8.90;86.68;102570.22;5043976;28;20040;-45
2021/10/23 07:23:09;;;;;;;12.75;3.90;;;;;;;8.93;86.49;102575.31;5032483;28;20112;-46
2021/10/23 07:25:35;;;;;;;12.43;3.80;;;;;;;8.97;86.44;102582.13;5028470;28;20100;-44
2021/10/23 07:28:00;;;;;;;20.23;4.50;;;;;;;8.99;86.13;102590.91;5042373;28;20044;-46
2021/10/23 07:30:26;;;;;;;20.98;4.93;;;;;;;9.02;86.11;102595.16;5049680;28;20395;-44
2021/10/23 07:32:51;;;;;;;16.08;4.65;;;;;;;9.05;86.05;102599.44;5052276;28;20052;-45
2021/10/23 07:35:17;;;;;;;13.75;5.45;;;;;;;9.08;86.36;102597.34;5037252;28;20034;-45
2021/10/23 07:37:42;;;;;;;18.13;5.85;;;;;;;9.12;85.76;102589.88;5031905;28;20029;-44
2021/10/23 07:40:10;;;;;;;18.92;4.78;;;;;;;9.16;86.09;102596.69;5033722;28;20032;-45
2021/10/23 07:42:36;;;;;;;12.27;4.82;;;;;;;9.20;85.98;102593.63;5043910;28;20484;-46
2021/10/23 07:45:03;;;;;;;15.57;5.07;;;;;;;9.21;85.83;102603.38;5032793;28;20138;-44
2021/10/23 07:47:28;;;;;;;19.00;5.38;;;;;;;9.25;85.86;102600.44;5032652;28;20366;-44
2021/10/23 07:49:54;;;;;;;18.15;5.15;;;;;;;9.30;85.79;102603.59;5032267;28;20028;-45
2021/10/23 07:52:20;;;;;;;24.02;6.18;;;;;;;9.34;85.60;102605.88;5036258;28;20595;-45
2021/10/23 07:54:46;;;;;;;18.05;6.20;;;;;;;9.36;85.52;102609.28;5041776;28;20037;-46
2021/10/23 07:57:11;;;;;;;14.13;6.03;;;;;;;9.40;85.48;102610.75;5032847;28;20025;-44
2021/10/23 07:59:37;;;;;;;26.65;6.65;;;;;;;9.44;85.52;102609.47;5048422;28;20032;-46
2021/10/23 08:02:02;;;;;;;15.52;5.65;;;;;;;9.51;85.15;102609.81;5042670;28;20025;-44
2021/10/23 08:04:28;;;;;;;19.52;6.00;;;;;;;9.52;84.74;102613.34;5040162;28;20030;-45
2021/10/23 08:06:54;;;;;;;23.02;6.88;;;;;;;9.54;84.75;102616.78;5049840;28;20020;-45
2021/10/23 08:09:20;;;;;;;20.13;6.57;;;;;;;9.54;84.36;102612.25;5051802;28;20033;-45
2021/10/23 08:11:45;;;;;;;23.02;7.15;;;;;;;9.56;84.62;102623.72;5045775;28;20059;-47
2021/10/23 08:14:12;;;;;;;22.55;7.50;;;;;;;9.58;84.53;102616.34;5035528;28;20036;-45
2021/10/23 08:16:37;;;;;;;19.40;7.20;;;;;;;9.61;84.84;102615.25;5044184;28;20093;-44
2021/10/23 08:19:03;;;;;;;16.60;6.95;;;;;;;9.65;83.99;102625.59;5043083;28;20485;-45
2021/10/23 08:21:28;;;;;;;27.27;7.55;;;;;;;9.62;84.13;102630.41;5030928;28;20057;-44
2021/10/23 08:23:53;;;;;;;19.50;7.55;;;;;;;9.66;83.74;102631.84;5033216;28;20269;-44
2021/10/23 08:26:19;;;;;;;16.15;7.53;;;;;;;9.63;84.08;102638.31;5034435;28;20016;-45
2021/10/23 08:28:44;;;;;;;29.55;8.57;;;;;;;9.67;83.89;102633.56;5042189;28;20036;-45
2021/10/23 08:31:10;;;;;;;14.38;7.40;;;;;;;9.73;83.69;102638.38;5040284;28;20030;-44
2021/10/23 08:33:35;;;;;;;24.35;7.57;;;;;;;9.79;84.08;102632.47;5051663;28;20044;-44
2021/10/23 08:36:01;;;;;;;15.73;7.05;;;;;;;9.79;83.72;102639.69;5051743;28;20021;-44
2021/10/23 08:38:26;;;;;;;21.75;8.45;;;;;;;9.83;83.80;102639.31;5051489;28;20029;-45
2021/10/23 08:40:53;;;;;;;18.63;8.52;;;;;;;9.82;84.16;102644.81;5048795;28;20140;-46
2021/10/23 08:43:19;;;;;;;22.58;7.70;;;;;;;9.81;83.69;102645.81;5051801;28;20218;-45
2021/10/23 08:45:45;;;;;;;18.48;8.15;;;;;;;9.81;83.59;102643.94;5049302;28;20184;-44
2021/10/23 08:48:11;;;;;;;20.85;8.38;;;;;;;9.82;83.77;102643.00;5041168;28;20029;-44
2021/10/23 08:50:37;;;;;;;21.42;8.18;;;;;;;9.89;83.55;102644.13;5033909;28;20555;-45
2021/10/23 08:53:02;;;;;;;18.08;8.23;;;;;;;9.95;82.72;102649.97;5044533;28;20064;-44
2021/10/23 08:55:28;;;;;;;19.40;8.05;;;;;;;9.95;83.30;102649.97;5037605;28;20025;-46
2021/10/23 08:57:54;;;;;;;17.58;8.07;;;;;;;9.89;83.25;102654.06;5055756;28;20507;-46
2021/10/23 09:00:19;;;;;;;22.65;8.32;;;;;;;9.86;83.11;102655.16;5046244;28;20485;-48
2021/10/23 09:02:48;;;;;;;23.20;9.25;;;;;;;9.84;83.16;102651.75;5034359;28;20041;-47
2021/10/23 09:05:14;;;;;;;24.90;8.82;;;;;;;9.90;83.09;102645.00;5035595;28;20044;-45
2021/10/23 09:07:44;;;;;;;17.58;7.80;;;;;;;9.92;81.90;102645.72;5036183;28;20041;-44
2021/10/23 09:10:09;;;;;;;20.33;8.10;;;;;;;9.95;81.56;102644.59;5043278;28;20549;-45
2021/10/23 09:12:36;;;;;;;11.30;7.53;;;;;;;9.96;81.28;102643.63;5055428;28;20096;-45
2021/10/23 09:15:05;;;;;;;16.88;7.57;;;;;;;10.01;80.87;102647.63;5055368;28;20125;-45
2021/10/23 09:17:32;;;;;;;16.48;7.65;;;;;;;10.01;80.85;102657.53;5037671;28;20042;-45
2021/10/23 09:20:01;;;;;;;19.95;9.52;;;;;;;10.01;81.22;102650.31;5036841;28;20037;-44
2021/10/23 09:22:30;;;;;;;18.55;8.60;;;;;;;10.06;81.05;102652.59;5045224;28;20533;-47
2021/10/23 09:25:22;;;;;;;17.55;8.15;;;;;;;10.11;81.11;102661.13;5048932;28;20021;-45
2021/10/23 09:28:00;;;;;;;16.13;7.47;;;;;;;10.21;80.45;102651.22;5052781;28;20033;-45
2021/10/23 09:30:35;;;;;;;25.42;7.68;;;;;;;10.23;79.69;102657.34;5050190;28;20036;-44
2021/10/23 09:33:04;;;;;;;13.93;7.53;;;;;;;10.30;79.20;102653.16;5051999;28;20029;-44
2021/10/23 09:35:30;;;;;;;17.42;7.70;;;;;;;10.39;79.22;102653.31;5046472;28;20026;-44
2021/10/23 09:37:58;;;;;;;14.30;7.28;;;;;;;10.42;78.77;102653.88;5032625;28;20037;-44
2021/10/23 09:40:25;;;;;;;15.60;5.70;;;;;;;10.46;78.00;102646.41;5031723;28;20021;-45
2021/10/23 09:43:09;;;;;;;14.13;5.35;;;;;;;10.48;77.57;102655.22;5031692;28;20477;-45
2021/10/23 09:45:35;;;;;;;12.68;4.80;;;;;;;10.51;77.51;102666.53;5049618;28;20033;-43
2021/10/23 09:48:10;;;;;;;9.60;5.28;;;;;;;10.52;77.52;102662.84;5047928;28;20033;-43
2021/10/23 09:50:36;;;;;;;12.80;5.35;;;;;;;10.52;77.30;102662.00;5045879;28;20049;-46
2021/10/23 09:53:07;;;;;;;14.50;5.15;;;;;;;10.52;77.57;102662.00;5031590;28;20516;-44
2021/10/23 09:55:53;;;;;;;17.75;6.43;;;;;;;10.60;77.82;102669.41;5031192;28;20151;-44
2021/10/23 09:58:23;;;;;;;9.68;5.32;;;;;;;10.58;78.21;102666.84;5050882;28;20345;-44
2021/10/23 10:00:52;;;;;;;10.45;5.57;;;;;;;10.62;78.50;102657.50;5040862;28;20045;-46
2021/10/23 10:03:18;;;;;;;16.23;5.85;;;;;;;10.70;77.62;102660.34;5041303;28;20135;-45
2021/10/23 10:05:44;;;;;;;13.85;5.53;;;;;;;10.64;77.41;102663.59;5038480;28;20045;-44
2021/10/23 10:08:14;;;;;;;16.10;6.00;;;;;;;10.64;77.78;102663.59;5033169;28;20029;-45
2021/10/23 10:10:41;;;;;;;12.23;5.63;;;;;;;10.71;77.64;102670.13;5035724;28;20028;-45
2021/10/23 10:13:12;;;;;;;15.20;5.78;;;;;;;10.80;77.82;102665.78;5051577;28;20159;-46
2021/10/23 10:15:38;;;;;;;15.93;5.97;;;;;;;10.76;77.83;102673.25;5034438;28;20087;-43
2021/10/23 10:18:05;;;;;;;12.40;5.72;;;;;;;10.80;78.14;102673.00;5033224;28;20068;-45
2021/10/23 10:20:33;;;;;;;15.75;5.85;;;;;;;10.74;77.97;102672.56;5034861;28;20025;-48
2021/10/23 10:22:58;;;;;;;15.73;5.75;;;;;;;10.75;78.03;102673.41;5034324;28;20029;-48
2021/10/23 10:25:25;;;;;;;15.60;6.40;;;;;;;10.82;78.18;102679.09;5032757;28;20048;-46
2021/10/23 10:27:54;;;;;;;16.35;6.28;;;;;;;10.74;77.62;102677.94;5033847;28;20036;-45
2021/10/23 10:30:23;;;;;;;14.57;5.53;;;;;;;10.78;78.46;102683.91;5039124;28;20036;-44
2021/10/23 10:32:48;;;;;;;16.33;5.80;;;;;;;10.77;77.74;102682.22;5050108;28;20106;-45
2021/10/23 10:43:05;;;;;;;18.10;7.15;;;;;;;10.79;78.22;102679.38;5045623;28;20510;-46
2021/10/23 10:45:33;;;;;;;15.63;6.70;;;;;;;10.78;78.71;102678.53;5050438;28;20052;-46
2021/10/23 10:48:25;;;;;;;18.05;7.38;;;;;;;10.83;78.55;102676.25;5044683;28;20033;-45
2021/10/23 10:51:10;;;;;;;12.80;6.95;;;;;;;10.86;78.54;102685.91;5034907;28;20051;-45
2021/10/23 10:53:39;;;;;;;12.00;5.75;;;;;;;10.87;78.51;102684.91;5038888;28;20037;-46
2021/10/23 10:56:06;;;;;;;17.35;7.10;;;;;;;10.85;78.27;102685.06;5048262;28;20045;-46
2021/10/23 10:58:53;;;;;;;15.38;7.10;;;;;;;10.92;78.53;102686.19;5046326;28;20024;-44
2021/10/23 11:01:22;;;;;;;11.27;6.37;;;;;;;10.92;78.71;102686.19;5044823;28;20036;-45
2021/10/23 11:03:47;;;;;;;17.20;7.45;;;;;;;10.94;78.92;102677.97;5043834;28;20037;-47
2021/10/23 11:06:30;;;;;;;14.90;8.35;;;;;;;10.97;79.05;102675.84;5040562;28;20176;-45
2021/10/23 11:09:30;;;;;;;21.60;7.95;;;;;;;11.04;79.23;102672.63;5036176;28;20376;-44
2021/10/23 11:11:57;;;;;;;13.90;7.13;;;;;;;11.03;78.76;102669.03;5036553;28;20037;-44
2021/10/23 11:14:28;;;;;;;15.55;8.30;;;;;;;11.04;79.05;102672.63;5040060;28;20122;-47
2021/10/23 11:19:40;;;;;;;13.65;7.93;;;;;;;11.02;79.28;102664.66;5048368;28;20032;-45
2021/10/23 11:22:11;;;;;;;19.90;8.70;;;;;;;11.07;79.54;102661.56;5039009;28;20049;-45
2021/10/23 11:24:47;;;;;;;16.10;8.25;;;;;;;11.10;79.47;102664.81;5052935;28;20064;-45
2021/10/23 11:27:33;;;;;;;15.80;8.65;;;;;;;11.09;79.35;102667.66;5052649;28;20029;-47
2021/10/23 11:30:15;;;;;;;17.40;8.57;;;;;;;11.16;79.21;102671.47;5051392;28;20033;-44
2021/10/23 11:32:44;;;;;;;20.35;8.82;;;;;;;11.12;79.38;102664.69;5047729;28;20081;-45